createdAt,value
2023-01-22T00:01:41.192Z,100610.19
2023-01-22T00:14:33.150Z,100598.81
2023-01-22T00:17:00.427Z,100591.22
2023-01-22T00:19:27.448Z,100590.97
2023-01-22T00:21:54.568Z,100582.75
2023-01-22T00:24:21.349Z,100579.38
2023-01-22T00:26:48.108Z,100585.16
2023-01-22T00:29:15.099Z,100585.72
2023-01-22T00:31:43.431Z,100584.03
2023-01-22T00:34:10.580Z,100590.47
2023-01-22T00:36:37.704Z,100587.44
2023-01-22T00:39:04.795Z,100580.66
2023-01-22T00:41:37.094Z,100583.59
2023-01-22T00:44:04.507Z,100578.97
2023-01-22T00:46:31.317Z,100571.75
2023-01-22T00:49:00.091Z,100575.09
2023-01-22T00:51:26.938Z,100580.41
2023-01-22T00:53:54.040Z,100576.53
2023-01-22T00:56:21.012Z,100567.97
2023-01-22T00:58:47.947Z,100574.53
2023-01-22T01:01:20.668Z,100581.38
2023-01-22T01:03:47.503Z,100575.09
2023-01-22T01:06:18.977Z,100582.94
2023-01-22T01:08:48.208Z,100577.63
2023-01-22T01:11:18.853Z,100577.75
2023-01-22T01:13:45.784Z,100576.06
2023-01-22T01:16:16.744Z,100573.28
2023-01-22T01:18:45.876Z,100572.16
2023-01-22T01:21:13.139Z,100573.03
2023-01-22T01:23:42.403Z,100574.44
2023-01-22T01:26:13.537Z,100567.06
2023-01-22T01:28:42.578Z,100580.81
2023-01-22T01:31:13.561Z,100572.72
2023-01-22T01:33:41.422Z,100576.06
2023-01-22T01:36:12.058Z,100574.41
2023-01-22T01:38:40.012Z,100583.09
2023-01-22T01:41:11.970Z,100581.25
2023-01-22T01:43:38.899Z,100580.06
2023-01-22T01:46:21.408Z,100583.72
2023-01-22T01:48:52.986Z,100572.56
2023-01-22T01:51:28.901Z,100569.53
2023-01-22T01:53:57.403Z,100573.00
2023-01-22T01:56:30.316Z,100560.16
2023-01-22T01:59:03.774Z,100557.50
2023-01-22T02:01:32.653Z,100564.50
2023-01-22T02:04:01.225Z,100566.22
2023-01-22T02:06:28.262Z,100562.56
2023-01-22T02:08:56.882Z,100564.97
2023-01-22T02:11:27.007Z,100566.75
2023-01-22T02:14:02.659Z,100564.09
2023-01-22T02:16:29.940Z,100568.88
2023-01-22T02:18:56.833Z,100559.19
2023-01-22T02:21:32.374Z,100567.88
2023-01-22T02:23:59.941Z,100567.75
2023-01-22T02:26:28.451Z,100567.34
2023-01-22T02:28:56.868Z,100565.28
2023-01-22T02:31:27.228Z,100558.97
2023-01-22T02:33:54.471Z,100550.13
2023-01-22T02:36:22.445Z,100558.13
2023-01-22T02:38:52.088Z,100559.81
2023-01-22T02:41:19.090Z,100556.19
2023-01-22T02:43:46.405Z,100561.22
2023-01-22T02:46:13.868Z,100551.72
2023-01-22T02:48:40.924Z,100562.91
2023-01-22T02:51:08.483Z,100562.66
2023-01-22T02:53:35.461Z,100561.56
2023-01-22T02:56:08.917Z,100561.69
2023-01-22T02:58:36.933Z,100566.03
2023-01-22T03:01:10.147Z,100560.97
2023-01-22T03:03:37.480Z,100559.97
2023-01-22T03:06:04.876Z,100562.50
2023-01-22T03:08:31.953Z,100551.19
2023-01-22T03:10:59.090Z,100560.56
2023-01-22T03:13:28.768Z,100552.44
2023-01-22T03:15:56.734Z,100552.31
2023-01-22T03:18:23.573Z,100550.38
2023-01-22T03:20:51.935Z,100548.53
2023-01-22T03:23:18.984Z,100545.75
2023-01-22T03:25:48.332Z,100547.44
2023-01-22T03:28:15.215Z,100548.13
2023-01-22T03:30:43.514Z,100547.03
2023-01-22T03:33:10.434Z,100549.72
2023-01-22T03:35:38.007Z,100549.72
2023-01-22T03:38:12.733Z,100553.91
2023-01-22T03:40:40.220Z,100548.41
2023-01-22T03:43:07.554Z,100555.31
2023-01-22T03:45:35.602Z,100553.72
2023-01-22T03:48:05.928Z,100548.81
2023-01-22T03:50:37.777Z,100552.19
2023-01-22T03:53:05.777Z,100549.38
2023-01-22T03:55:33.598Z,100549.25
2023-01-22T03:58:00.444Z,100552.63
2023-01-22T04:00:27.617Z,100553.47
2023-01-22T04:02:54.585Z,100541.13
2023-01-22T04:05:27.995Z,100544.91
2023-01-22T04:07:54.790Z,100548.41
2023-01-22T04:10:25.867Z,100556.38
2023-01-22T04:12:52.972Z,100555.56
2023-01-22T04:15:22.267Z,100552.91
2023-01-22T04:17:50.458Z,100562.84
2023-01-22T04:20:42.811Z,100552.19
2023-01-22T04:23:44.887Z,100557.50
2023-01-22T04:26:12.315Z,100559.44
2023-01-22T04:28:39.068Z,100567.56
2023-01-22T04:31:06.381Z,100564.22
2023-01-22T04:33:53.563Z,100567.16
2023-01-22T04:36:29.106Z,100559.28
2023-01-22T04:38:56.180Z,100564.63
2023-01-22T04:41:23.245Z,100570.38
2023-01-22T04:43:50.097Z,100573.88
2023-01-22T04:46:17.604Z,100569.41
2023-01-22T04:48:44.508Z,100562.97
2023-01-22T04:51:11.422Z,100570.22
2023-01-22T04:53:39.641Z,100566.47
2023-01-22T04:56:07.926Z,100567.88
2023-01-22T04:58:34.964Z,100576.72
2023-01-22T05:01:01.976Z,100577.53
2023-01-22T05:03:28.994Z,100577.69
2023-01-22T05:05:56.531Z,100582.06
2023-01-22T05:08:23.344Z,100581.91
2023-01-22T05:10:52.332Z,100576.47
2023-01-22T05:13:28.885Z,100578.13
2023-01-22T05:15:55.923Z,100584.56
2023-01-22T05:18:24.736Z,100583.47
2023-01-22T05:20:52.522Z,100586.25
2023-01-22T05:23:21.616Z,100596.03
2023-01-22T05:25:49.421Z,100599.44
2023-01-22T05:28:22.204Z,100586.97
2023-01-22T05:31:08.106Z,100595.50
2023-01-22T05:33:42.113Z,100592.13
2023-01-22T05:36:11.855Z,100599.03
2023-01-22T05:38:39.278Z,100595.38
2023-01-22T05:41:06.533Z,100603.38
2023-01-22T05:43:39.541Z,100589.63
2023-01-22T05:46:09.517Z,100603.91
2023-01-22T05:48:56.710Z,100609.81
2023-01-22T05:51:26.191Z,100606.28
2023-01-22T05:53:53.827Z,100607.28
2023-01-22T05:56:20.791Z,100608.69
2023-01-22T05:58:49.513Z,100607.69
2023-01-22T06:01:17.204Z,100604.09
2023-01-22T06:03:47.913Z,100608.03
2023-01-22T06:06:19.473Z,100612.63
2023-01-22T06:08:48.235Z,100616.88
2023-01-22T06:11:17.387Z,100617.69
2023-01-22T06:13:46.248Z,100619.53
2023-01-22T06:16:24.305Z,100621.19
2023-01-22T06:19:10.490Z,100618.94
2023-01-22T06:21:47.579Z,100618.09
2023-01-22T06:24:14.668Z,100628.47
2023-01-22T06:26:41.634Z,100618.09
2023-01-22T06:29:11.262Z,100632.84
2023-01-22T06:31:40.524Z,100630.88
2023-01-22T06:34:09.306Z,100626.63
2023-01-22T06:36:36.439Z,100635.75
2023-01-22T06:39:05.169Z,100631.53
2023-01-22T06:41:39.641Z,100636.78
2023-01-22T06:44:10.276Z,100637.69
2023-01-22T06:46:37.707Z,100623.41
2023-01-22T06:49:11.201Z,100638.78
2023-01-22T06:51:39.900Z,100644.72
2023-01-22T06:54:07.409Z,100652.72
2023-01-22T06:56:34.278Z,100642.53
2023-01-22T06:59:03.432Z,100646.47
2023-01-22T07:01:30.499Z,100640.59
2023-01-22T07:03:57.348Z,100651.13
2023-01-22T07:06:25.596Z,100651.81
2023-01-22T07:08:52.397Z,100660.50
2023-01-22T07:11:19.459Z,100656.19
2023-01-22T07:13:46.319Z,100655.06
2023-01-22T07:16:13.351Z,100658.16
2023-01-22T07:18:40.371Z,100667.84
2023-01-22T07:21:07.311Z,100667.44
2023-01-22T07:23:35.584Z,100670.53
2023-01-22T07:26:02.486Z,100669.44
2023-01-22T07:28:29.249Z,100672.66
2023-01-22T07:30:56.100Z,100676.91
2023-01-22T07:33:23.094Z,100679.16
2023-01-22T07:35:55.036Z,100678.03
2023-01-22T07:38:22.365Z,100683.09
2023-01-22T07:40:50.465Z,100685.63
2023-01-22T07:43:17.337Z,100691.56
2023-01-22T07:45:44.427Z,100685.25
2023-01-22T07:48:11.869Z,100691.41
2023-01-22T07:50:38.995Z,100692.56
2023-01-22T07:53:06.675Z,100693.84
2023-01-22T07:55:33.704Z,100695.97
2023-01-22T07:58:05.548Z,100692.03
2023-01-22T08:00:35.397Z,100703.88
2023-01-22T08:03:04.909Z,100703.59
2023-01-22T08:05:31.831Z,100695.47
2023-01-22T08:07:58.985Z,100699.22
2023-01-22T08:10:25.904Z,100708.50
2023-01-22T08:12:52.728Z,100714.41
2023-01-22T08:15:21.038Z,100711.31
2023-01-22T08:17:49.650Z,100714.56
2023-01-22T08:20:18.313Z,100716.09
2023-01-22T08:22:45.387Z,100711.63
2023-01-22T08:25:12.714Z,100718.63
2023-01-22T08:27:39.601Z,100716.09
2023-01-22T08:30:08.767Z,100712.44
2023-01-22T08:32:37.891Z,100721.03
2023-01-22T08:35:06.003Z,100726.38
2023-01-22T08:37:32.771Z,100724.56
2023-01-22T08:39:59.531Z,100733.38
2023-01-22T08:42:26.437Z,100734.22
2023-01-22T08:44:53.461Z,100732.97
2023-01-22T08:47:20.246Z,100733.81
2023-01-22T08:49:48.433Z,100733.81
2023-01-22T08:52:15.701Z,100749.94
2023-01-22T08:54:42.613Z,100739.88
2023-01-22T08:57:09.546Z,100741.41
2023-01-22T08:59:36.365Z,100749.00
2023-01-22T09:02:03.591Z,100742.81
2023-01-22T09:04:30.604Z,100746.19
2023-01-22T09:06:58.737Z,100736.53
2023-01-22T09:09:25.707Z,100744.38
2023-01-22T09:11:52.483Z,100750.13
2023-01-22T09:14:19.399Z,100754.47
2023-01-22T09:16:46.316Z,100757.00
2023-01-22T09:19:13.368Z,100756.16
2023-01-22T09:21:40.363Z,100753.63
2023-01-22T09:24:09.385Z,100758.94
2023-01-22T09:26:36.955Z,100754.34
2023-01-22T09:29:05.452Z,100764.16
2023-01-22T09:31:32.380Z,100764.00
2023-01-22T09:33:59.802Z,100757.41
2023-01-22T09:36:27.175Z,100760.38
2023-01-22T09:38:54.505Z,100764.31
2023-01-22T09:41:29.889Z,100762.38
2023-01-22T09:44:05.177Z,100767.84
2023-01-22T09:46:43.016Z,100767.97
2023-01-22T09:49:15.838Z,100771.31
2023-01-22T09:51:46.948Z,100779.91
2023-01-22T09:54:15.001Z,100772.63
2023-01-22T09:56:47.038Z,100768.97
2023-01-22T09:59:18.572Z,100771.94
2023-01-22T10:01:52.465Z,100776.69
2023-01-22T10:04:33.895Z,100780.22
2023-01-22T10:07:04.193Z,100777.72
2023-01-22T10:09:33.772Z,100781.38
2023-01-22T10:12:11.882Z,100782.09
2023-01-22T10:14:39.318Z,100783.06
2023-01-22T10:17:21.457Z,100787.16
2023-01-22T10:19:55.352Z,100788.41
2023-01-22T10:22:24.957Z,100787.84
2023-01-22T10:24:53.158Z,100778.28
2023-01-22T10:27:32.081Z,100786.56
2023-01-22T10:30:07.082Z,100779.41
2023-01-22T10:32:34.128Z,100787.81
2023-01-22T10:35:05.706Z,100786.56
2023-01-22T10:37:44.943Z,100796.69
2023-01-22T10:40:24.504Z,100785.16
2023-01-22T10:43:06.032Z,100789.25
2023-01-22T10:45:33.129Z,100788.97
2023-01-22T10:48:05.788Z,100794.88
2023-01-22T10:50:32.949Z,100795.44
2023-01-22T10:52:59.803Z,100791.34
2023-01-22T10:55:31.663Z,100790.34
2023-01-22T10:58:06.543Z,100791.19
2023-01-22T11:00:50.504Z,100784.72
2023-01-22T11:03:22.097Z,100794.72
2023-01-22T11:05:58.424Z,100790.91
2023-01-22T11:08:38.518Z,100789.78
2023-01-22T11:11:10.835Z,100789.25
2023-01-22T11:13:50.680Z,100794.59
2023-01-22T11:16:20.431Z,100799.22
2023-01-22T11:18:55.844Z,100794.31
2023-01-22T11:21:29.872Z,100797.41
2023-01-22T11:24:08.672Z,100798.09
2023-01-22T11:26:55.021Z,100794.16
2023-01-22T11:29:50.611Z,100786.56
2023-01-22T11:32:46.376Z,100785.88
2023-01-22T11:35:25.350Z,100791.22
2023-01-22T11:38:17.977Z,100793.31
2023-01-22T11:41:05.329Z,100788.69
2023-01-22T11:43:55.244Z,100783.19
2023-01-22T11:46:51.616Z,100782.66
2023-01-22T11:49:35.353Z,100780.28
2023-01-22T11:52:22.060Z,100778.28
2023-01-22T11:55:22.206Z,100775.06
2023-01-22T11:58:08.594Z,100778.16
2023-01-22T12:00:51.824Z,100768.44
2023-01-22T12:04:00.191Z,100769.84
2023-01-22T12:06:56.919Z,100768.72
2023-01-22T12:09:34.909Z,100768.16
2023-01-22T12:12:19.974Z,100773.91
2023-01-22T12:15:04.616Z,100771.38
2023-01-22T12:17:51.017Z,100772.06
2023-01-22T12:20:52.289Z,100767.78
2023-01-22T12:23:30.737Z,100767.22
2023-01-22T12:26:04.425Z,100767.78
2023-01-22T12:28:41.802Z,100766.91
2023-01-22T12:31:19.327Z,100764.66
2023-01-22T12:33:46.308Z,100765.50
2023-01-22T12:36:21.585Z,100771.16
2023-01-22T12:38:57.284Z,100769.41
2023-01-22T12:41:46.306Z,100775.13
2023-01-22T12:44:31.020Z,100768.13
2023-01-22T12:47:13.022Z,100766.69
2023-01-22T12:49:48.762Z,100768.78
2023-01-22T12:52:35.640Z,100772.66
2023-01-22T12:55:21.951Z,100775.47
2023-01-22T12:57:49.161Z,100775.47
2023-01-22T13:00:33.006Z,100782.06
2023-01-22T13:03:01.369Z,100771.09
2023-01-22T13:05:41.393Z,100784.75
2023-01-22T13:08:27.876Z,100785.59
2023-01-22T13:10:58.678Z,100787.97
2023-01-22T13:13:31.950Z,100788.66
2023-01-22T13:16:05.159Z,100792.88
2023-01-22T13:18:41.488Z,100781.66
2023-01-22T13:21:12.091Z,100787.16
2023-01-22T13:23:45.897Z,100785.31
2023-01-22T13:26:19.270Z,100793.88
2023-01-22T13:28:53.411Z,100787.81
2023-01-22T13:31:20.455Z,100788.25
2023-01-22T13:34:00.019Z,100791.19
2023-01-22T13:36:28.023Z,100789.22
2023-01-22T13:38:59.143Z,100790.50
2023-01-22T13:41:30.905Z,100786.97
2023-01-22T13:43:59.190Z,100802.56
2023-01-22T13:46:27.890Z,100792.03
2023-01-22T13:49:11.715Z,100793.13
2023-01-22T13:51:40.442Z,100790.44
2023-01-22T13:54:21.807Z,100794.78
2023-01-22T13:56:48.912Z,100795.66
2023-01-22T13:59:21.243Z,100788.34
2023-01-22T14:01:49.439Z,100789.22
2023-01-22T14:04:35.291Z,100796.84
2023-01-22T14:07:03.496Z,100794.31
2023-01-22T14:09:35.544Z,100790.78
2023-01-22T14:12:15.455Z,100794.16
2023-01-22T14:14:42.774Z,100799.50
2023-01-22T14:17:22.630Z,100810.47
2023-01-22T14:19:50.502Z,100798.06
2023-01-22T14:22:17.960Z,100799.22
2023-01-22T14:24:46.099Z,100798.50
2023-01-22T14:27:13.284Z,100804.56
2023-01-22T14:29:40.397Z,100799.75
2023-01-22T14:32:07.167Z,100809.63
2023-01-22T14:34:33.997Z,100809.00
2023-01-22T14:37:00.841Z,100820.41
2023-01-22T14:39:32.204Z,100808.63
2023-01-22T14:42:01.549Z,100822.13
2023-01-22T14:44:28.465Z,100818.34
2023-01-22T14:46:55.386Z,100815.53
2023-01-22T14:49:22.381Z,100814.25
2023-01-22T14:51:52.055Z,100817.34
2023-01-22T14:54:19.399Z,100814.81
2023-01-22T14:56:46.278Z,100829.28
2023-01-22T14:59:14.489Z,100827.59
2023-01-22T15:01:41.390Z,100835.19
2023-01-22T15:04:08.268Z,100824.66
2023-01-22T15:06:35.310Z,100837.31
2023-01-22T15:09:02.117Z,100836.59
2023-01-22T15:11:29.047Z,100843.16
2023-01-22T15:13:55.950Z,100847.91
2023-01-22T15:16:24.317Z,100853.69
2023-01-22T15:18:54.891Z,100851.03
2023-01-22T15:21:22.376Z,100857.19
2023-01-22T15:23:49.172Z,100854.38
2023-01-22T15:26:26.563Z,100847.31
2023-01-22T15:28:54.987Z,100852.13
2023-01-22T15:31:21.996Z,100852.69
2023-01-22T15:33:50.609Z,100858.31
2023-01-22T15:36:17.552Z,100860.16
2023-01-22T15:38:44.333Z,100857.53
2023-01-22T15:41:20.268Z,100862.03
2023-01-22T15:43:51.275Z,100860.09
2023-01-22T15:46:19.997Z,100866.09
2023-01-22T15:48:47.564Z,100865.81
2023-01-22T15:51:16.556Z,100875.09
2023-01-22T15:53:48.946Z,100879.59
2023-01-22T15:56:16.347Z,100881.84
2023-01-22T15:58:44.259Z,100872.72
2023-01-22T16:01:11.519Z,100877.91
2023-01-22T16:03:38.574Z,100877.78
2023-01-22T16:06:10.844Z,100870.75
2023-01-22T16:08:40.319Z,100877.50
2023-01-22T16:11:08.445Z,100884.38
2023-01-22T16:13:35.973Z,100874.13
2023-01-22T16:16:06.720Z,100872.97
2023-01-22T16:18:35.440Z,100879.59
2023-01-22T16:21:03.440Z,100881.44
2023-01-22T16:23:31.867Z,100882.25
2023-01-22T16:26:04.170Z,100884.78
2023-01-22T16:28:31.421Z,100883.84
2023-01-22T16:31:03.598Z,100877.38
2023-01-22T16:33:34.299Z,100889.31
2023-01-22T16:36:03.880Z,100890.84
2023-01-22T16:38:31.869Z,100890.97
2023-01-22T16:41:27.581Z,100893.75
2023-01-22T16:43:58.981Z,100896.16
2023-01-22T16:46:29.333Z,100905.44
2023-01-22T16:48:59.831Z,100911.50
2023-01-22T16:51:32.617Z,100909.66
2023-01-22T16:53:59.454Z,100912.03
2023-01-22T16:56:27.728Z,100921.50
2023-01-22T16:58:54.757Z,100920.63
2023-01-22T17:01:21.915Z,100917.09
2023-01-22T17:03:48.782Z,100921.63
2023-01-22T17:06:26.844Z,100926.25
2023-01-22T17:08:54.725Z,100923.44
2023-01-22T17:11:22.344Z,100927.66
2023-01-22T17:13:50.695Z,100928.50
2023-01-22T17:16:18.751Z,100929.50
2023-01-22T17:18:46.555Z,100935.81
2023-01-22T17:21:18.898Z,100928.66
2023-01-22T17:23:46.069Z,100935.09
2023-01-22T17:26:17.007Z,100931.44
2023-01-22T17:28:44.389Z,100933.97
2023-01-22T17:31:15.681Z,100941.13
2023-01-22T17:33:43.610Z,100943.94
2023-01-22T17:36:13.151Z,100942.69
2023-01-22T17:38:40.364Z,100945.22
2023-01-22T17:41:10.601Z,100941.81
2023-01-22T17:43:38.175Z,100939.88
2023-01-22T17:46:10.576Z,100946.34
2023-01-22T17:48:39.981Z,100948.41
2023-01-22T17:51:09.425Z,100950.09
2023-01-22T17:53:38.692Z,100954.34
2023-01-22T17:56:13.906Z,100947.56
2023-01-22T17:58:42.983Z,100960.91
2023-01-22T18:01:12.723Z,100953.75
2023-01-22T18:03:41.707Z,100953.50
2023-01-22T18:06:09.673Z,100956.16
2023-01-22T18:08:37.622Z,100960.50
2023-01-22T18:11:09.949Z,100968.78
2023-01-22T18:13:38.547Z,100968.09
2023-01-22T18:16:07.961Z,100970.75
2023-01-22T18:18:35.753Z,100971.59
2023-01-22T18:21:05.847Z,100975.13
2023-01-22T18:23:32.931Z,100979.03
2023-01-22T18:26:05.069Z,100979.72
2023-01-22T18:28:33.349Z,100979.59
2023-01-22T18:31:05.374Z,100981.16
2023-01-22T18:33:32.728Z,100975.84
2023-01-22T18:36:00.497Z,100978.38
2023-01-22T18:38:29.112Z,100980.91
2023-01-22T18:40:55.927Z,100987.06
2023-01-22T18:43:23.206Z,100983.56
2023-01-22T18:45:50.056Z,100992.53
2023-01-22T18:48:17.065Z,100995.22
2023-01-22T18:50:51.593Z,100997.88
2023-01-22T18:53:19.287Z,100997.88
2023-01-22T18:55:47.851Z,100999.59
2023-01-22T18:58:14.782Z,101011.22
2023-01-22T19:00:41.704Z,101008.56
2023-01-22T19:03:08.859Z,101013.22
2023-01-22T19:05:39.608Z,101016.28
2023-01-22T19:08:06.698Z,101013.75
2023-01-22T19:10:33.531Z,101018.50
2023-01-22T19:13:01.999Z,101006.00
2023-01-22T19:15:29.126Z,101014.28
2023-01-22T19:17:55.955Z,101007.81
2023-01-22T19:20:22.847Z,101017.91
2023-01-22T19:22:49.699Z,101017.91
2023-01-22T19:25:17.257Z,101021.69
2023-01-22T19:27:44.357Z,101018.44
2023-01-22T19:30:13.223Z,101026.13
2023-01-22T19:32:40.115Z,101026.00
2023-01-22T19:35:08.056Z,101025.75
2023-01-22T19:37:35.102Z,101025.59
2023-01-22T19:40:18.915Z,101022.94
2023-01-22T19:42:45.844Z,101027.28
2023-01-22T19:45:14.471Z,101035.56
2023-01-22T19:47:41.369Z,101042.22
2023-01-22T19:50:09.887Z,101029.59
2023-01-22T19:52:36.824Z,101045.47
2023-01-22T19:55:04.227Z,101030.88
2023-01-22T19:57:31.357Z,101031.75
2023-01-22T19:59:58.215Z,101038.75
2023-01-22T20:02:27.255Z,101038.63
2023-01-22T20:04:54.160Z,101035.97
2023-01-22T20:07:21.090Z,101041.44
2023-01-22T20:09:49.039Z,101045.91
2023-01-22T20:12:16.066Z,101043.09
2023-01-22T20:14:42.888Z,101043.09
2023-01-22T20:17:10.380Z,101043.38
2023-01-22T20:19:38.852Z,101044.47
2023-01-22T20:22:06.081Z,101033.13
2023-01-22T20:24:33.926Z,101030.72
2023-01-22T20:27:00.769Z,101047.81
2023-01-22T20:29:27.769Z,101043.47
2023-01-22T20:31:55.930Z,101048.78
2023-01-22T20:34:23.183Z,101049.19
2023-01-22T20:36:51.752Z,101042.44
2023-01-22T20:39:18.892Z,101046.78
2023-01-22T20:41:46.111Z,101052.25
2023-01-22T20:44:14.103Z,101047.16
2023-01-22T20:46:41.035Z,101045.75
2023-01-22T20:49:08.410Z,101051.22
2023-01-22T20:51:35.672Z,101053.88
2023-01-22T20:54:04.425Z,101063.94
2023-01-22T20:56:33.773Z,101058.00
2023-01-22T20:59:03.086Z,101059.72
2023-01-22T21:01:30.789Z,101063.34
2023-01-22T21:03:59.851Z,101063.59
2023-01-22T21:06:29.404Z,101061.66
2023-01-22T21:08:57.944Z,101064.47
2023-01-22T21:11:29.128Z,101065.31
2023-01-22T21:13:58.226Z,101067.00
2023-01-22T21:16:27.747Z,101064.19
2023-01-22T21:18:59.401Z,101064.06
2023-01-22T21:21:28.193Z,101070.38
2023-01-22T21:23:56.478Z,101068.56
2023-01-22T21:26:27.810Z,101072.06
2023-01-22T21:28:57.422Z,101064.94
2023-01-22T21:31:25.357Z,101063.34
2023-01-22T21:33:53.291Z,101058.00
2023-01-22T21:36:20.189Z,101059.84
2023-01-22T21:38:47.894Z,101070.25
2023-01-22T21:41:18.356Z,101060.50
2023-01-22T21:43:47.672Z,101071.59
2023-01-22T21:46:16.022Z,101071.47
2023-01-22T21:48:42.942Z,101077.41
2023-01-22T21:51:09.831Z,101076.41
2023-01-22T21:53:36.927Z,101078.25
2023-01-22T21:56:04.535Z,101076.41
2023-01-22T21:58:31.509Z,101081.63
2023-01-22T22:01:05.145Z,101076.28
2023-01-22T22:03:31.977Z,101076.28
2023-01-22T22:06:01.225Z,101079.09
2023-01-22T22:08:29.384Z,101077.19
2023-01-22T22:10:56.743Z,101083.25
2023-01-22T22:13:24.088Z,101093.19
2023-01-22T22:15:50.937Z,101093.91
2023-01-22T22:18:19.081Z,101093.91
2023-01-22T22:20:46.034Z,101100.38
2023-01-22T22:23:13.303Z,101104.97
2023-01-22T22:25:40.101Z,101093.81
2023-01-22T22:28:06.873Z,101090.59
2023-01-22T22:30:34.801Z,101089.59
2023-01-22T22:33:01.559Z,101100.13
2023-01-22T22:35:30.259Z,101093.97
2023-01-22T22:37:57.307Z,101100.00
2023-01-22T22:40:24.187Z,101098.22
2023-01-22T22:42:50.977Z,101097.22
2023-01-22T22:45:18.127Z,101099.75
2023-01-22T22:47:45.011Z,101105.34
2023-01-22T22:50:11.908Z,101098.47
2023-01-22T22:52:40.315Z,101101.81
2023-01-22T22:55:08.210Z,101105.59
2023-01-22T22:57:35.041Z,101109.03
2023-01-22T23:00:01.888Z,101115.59
2023-01-22T23:02:28.723Z,101109.88
2023-01-22T23:04:55.606Z,101116.75
2023-01-22T23:07:22.401Z,101119.69
2023-01-22T23:09:50.894Z,101114.09
2023-01-22T23:12:17.701Z,101117.50
2023-01-22T23:14:44.495Z,101118.47
2023-01-22T23:17:11.404Z,101122.47
2023-01-22T23:19:38.352Z,101124.06
2023-01-22T23:22:05.474Z,101113.41
2023-01-22T23:24:32.244Z,101112.66
2023-01-22T23:27:00.678Z,101121.03
2023-01-22T23:29:28.155Z,101113.06
2023-01-22T23:31:55.245Z,101114.91
2023-01-22T23:34:23.316Z,101111.00
2023-01-22T23:36:51.006Z,101101.09
2023-01-22T23:39:20.838Z,101112.69
2023-01-22T23:41:47.994Z,101116.47
2023-01-22T23:44:16.418Z,101109.81
2023-01-22T23:46:43.850Z,101106.19
2023-01-22T23:49:10.750Z,101105.69
2023-01-22T23:51:38.000Z,101111.63
2023-01-22T23:54:05.198Z,101114.28
2023-01-22T23:56:32.197Z,101104.31
2023-01-22T23:58:59.953Z,101118.94
